Time;durP1;ratioP1;P1;durP2;ratioP2;P2;SDS_P1;SDS_P2;PMS_P1;PMS_P2;Temp;Humidity;BMP_temperature;BMP_pressure;BME280_temperature;BME280_humidity;BME280_pressure;Samples;Min_cycle;Max_cycle;Signal;HPM_P1;HPM_P2
2022/10/30 00:00:00;;;;;;;15.95;9.63;;;;;;;15.32;100.00;100442.59;5012386;28;20524;-62
2022/10/30 00:02:25;;;;;;;18.42;8.95;;;;;;;15.34;100.00;100429.13;5021374;28;20041;-61
2022/10/30 00:04:50;;;;;;;22.70;9.85;;;;;;;15.29;100.00;100429.34;5031847;28;20101;-61
2022/10/30 00:07:16;;;;;;;17.98;8.93;;;;;;;15.28;100.00;100441.00;5031810;28;20029;-61
2022/10/30 00:09:41;;;;;;;17.02;9.40;;;;;;;15.27;100.00;100433.03;5031568;28;20088;-62
2022/10/30 00:12:07;;;;;;;17.27;10.18;;;;;;;15.27;100.00;100441.09;5030066;28;20029;-62
2022/10/30 00:14:32;;;;;;;14.85;9.40;;;;;;;15.27;100.00;100441.94;5030596;28;20029;-62
2022/10/30 00:16:58;;;;;;;14.73;8.85;;;;;;;15.26;100.00;100432.16;5030341;28;20036;-61
2022/10/30 00:19:23;;;;;;;19.02;9.70;;;;;;;15.25;100.00;100435.78;5030736;28;20056;-62
2022/10/30 00:21:49;;;;;;;20.88;9.52;;;;;;;15.26;100.00;100437.53;5030397;28;20048;-61
2022/10/30 00:24:14;;;;;;;18.85;10.25;;;;;;;15.24;100.00;100442.06;5030536;28;20630;-62
2022/10/30 00:26:40;;;;;;;16.30;9.02;;;;;;;15.23;100.00;100448.38;5031176;28;20036;-62
2022/10/30 00:29:05;;;;;;;15.85;9.10;;;;;;;15.22;100.00;100443.09;5030878;28;20033;-62
2022/10/30 00:31:30;;;;;;;13.05;7.88;;;;;;;15.15;100.00;100439.81;5031108;28;20021;-62
2022/10/30 00:33:56;;;;;;;12.90;7.97;;;;;;;15.06;100.00;100432.19;5029958;28;20034;-62
2022/10/30 00:36:22;;;;;;;17.13;9.02;;;;;;;15.06;100.00;100424.13;5031072;28;20036;-62
2022/10/30 00:38:47;;;;;;;16.73;8.90;;;;;;;15.09;100.00;100433.88;5031038;28;20029;-61
2022/10/30 00:41:19;;;;;;;16.52;9.45;;;;;;;15.09;100.00;100426.69;5031073;28;20068;-62
2022/10/30 00:43:45;;;;;;;18.30;11.02;;;;;;;15.05;100.00;100430.44;5027888;28;20037;-62
2022/10/30 00:46:28;;;;;;;15.80;9.30;;;;;;;15.04;100.00;100420.66;5029811;28;20037;-63
2022/10/30 00:49:09;;;;;;;15.25;9.20;;;;;;;15.11;100.00;100414.09;5029847;28;20037;-63
2022/10/30 00:51:38;;;;;;;17.00;8.32;;;;;;;15.19;100.00;100414.63;5029902;28;20045;-63
2022/10/30 00:54:05;;;;;;;14.45;7.88;;;;;;;15.25;100.00;100409.00;5030196;28;20026;-62
2022/10/30 00:56:30;;;;;;;13.80;7.95;;;;;;;15.27;100.00;100400.88;5028042;28;20087;-62
2022/10/30 00:59:03;;;;;;;13.05;8.40;;;;;;;15.27;100.00;100407.09;5029678;28;20085;-61
2022/10/30 01:01:34;;;;;;;12.30;7.22;;;;;;;15.26;100.00;100404.47;5012840;28;20032;-62
2022/10/30 01:04:02;;;;;;;17.45;7.53;;;;;;;15.26;100.00;100410.72;5019944;28;20042;-61
2022/10/30 01:06:31;;;;;;;14.00;8.55;;;;;;;15.30;100.00;100420.38;5011210;28;20339;-63
2022/10/30 01:08:57;;;;;;;13.70;6.93;;;;;;;15.29;100.00;100405.22;5011028;28;20080;-63
2022/10/30 01:11:23;;;;;;;11.73;7.63;;;;;;;15.23;100.00;100412.66;5011276;28;20544;-64
2022/10/30 01:13:52;;;;;;;12.35;7.18;;;;;;;15.14;100.00;100411.25;5011177;28;20049;-63
2022/10/30 01:16:36;;;;;;;14.10;7.43;;;;;;;15.15;100.00;100418.38;5011253;28;20025;-63
2022/10/30 01:19:38;;;;;;;14.15;7.43;;;;;;;15.15;100.00;100420.19;5011038;28;20030;-63
2022/10/30 01:22:06;;;;;;;13.43;7.72;;;;;;;15.15;100.00;100407.66;5011058;28;20060;-63
2022/10/30 01:25:22;;;;;;;15.40;8.18;;;;;;;15.15;100.00;100401.44;5011244;28;20080;-63
2022/10/30 01:28:21;;;;;;;13.15;7.65;;;;;;;15.11;100.00;100411.41;4993094;28;20101;-63
2022/10/30 01:31:11;;;;;;;11.32;7.05;;;;;;;15.07;100.00;100414.31;5010933;28;20113;-63
2022/10/30 01:33:56;;;;;;;12.18;7.72;;;;;;;15.01;100.00;100409.19;5010959;28;20449;-63
2022/10/30 01:36:32;;;;;;;13.82;7.68;;;;;;;14.97;100.00;100402.25;5011006;28;20165;-63
2022/10/30 01:39:03;;;;;;;14.80;7.88;;;;;;;14.91;100.00;100408.72;5010845;28;20057;-63
2022/10/30 01:41:28;;;;;;;13.88;8.25;;;;;;;14.83;100.00;100400.16;5010931;28;20029;-63
2022/10/30 01:44:00;;;;;;;14.63;8.07;;;;;;;14.77;100.00;100397.78;5010818;28;20354;-63
2022/10/30 01:46:43;;;;;;;13.95;8.32;;;;;;;14.76;100.00;100398.69;5013578;28;20029;-63
2022/10/30 01:49:24;;;;;;;13.83;7.87;;;;;;;14.82;100.00;100395.75;5014593;28;20022;-63
2022/10/30 01:51:54;;;;;;;12.63;7.78;;;;;;;14.87;100.00;100392.88;5022441;28;20272;-63
2022/10/30 01:54:36;;;;;;;14.32;9.20;;;;;;;14.85;100.00;100387.59;5031450;28;20014;-63
2022/10/30 01:57:13;;;;;;;12.85;7.28;;;;;;;14.83;100.00;100389.47;5033915;28;20386;-63
2022/10/30 01:59:44;;;;;;;13.35;7.78;;;;;;;14.78;100.00;100385.25;5034270;28;20526;-63
2022/10/30 02:02:10;;;;;;;13.93;7.90;;;;;;;14.67;100.00;100380.34;5034371;28;20037;-63
2022/10/30 02:04:37;;;;;;;12.95;7.57;;;;;;;14.61;100.00;100386.00;5018367;28;20026;-63
2022/10/30 02:07:02;;;;;;;11.85;7.60;;;;;;;14.57;100.00;100387.03;5014099;28;20022;-63
2022/10/30 02:09:28;;;;;;;10.73;6.75;;;;;;;14.53;100.00;100385.41;5014253;28;20433;-63
2022/10/30 02:11:54;;;;;;;13.10;6.90;;;;;;;14.49;100.00;100383.81;5017431;28;20029;-62
2022/10/30 02:14:25;;;;;;;11.80;7.90;;;;;;;14.43;100.00;100390.31;5033808;28;20104;-63
2022/10/30 02:16:53;;;;;;;13.43;6.72;;;;;;;14.39;100.00;100380.69;5034022;28;20465;-63
2022/10/30 02:19:18;;;;;;;13.30;7.82;;;;;;;14.35;100.00;100387.09;5033946;28;20052;-63
2022/10/30 02:21:44;;;;;;;11.15;6.68;;;;;;;14.31;100.00;100385.50;5034126;28;20690;-64
2022/10/30 02:24:09;;;;;;;10.90;7.22;;;;;;;14.25;100.00;100375.03;5033499;28;20037;-63
2022/10/30 02:26:35;;;;;;;12.68;7.50;;;;;;;14.24;100.00;100383.06;5032805;28;20109;-63
2022/10/30 02:29:01;;;;;;;16.92;8.05;;;;;;;14.24;100.00;100377.72;5032827;28;20419;-63
2022/10/30 02:31:26;;;;;;;11.75;7.20;;;;;;;14.21;100.00;100383.22;5032902;28;20029;-63
2022/10/30 02:33:52;;;;;;;14.30;7.35;;;;;;;14.17;100.00;100382.47;5032734;28;20083;-63
2022/10/30 02:36:18;;;;;;;12.82;6.80;;;;;;;14.13;100.00;100396.03;5032372;28;20104;-63
2022/10/30 02:38:43;;;;;;;16.50;7.25;;;;;;;14.09;100.00;100397.97;5032481;28;20043;-63
2022/10/30 02:41:09;;;;;;;12.02;6.85;;;;;;;14.08;100.00;100390.00;5033404;28;20033;-63
2022/10/30 02:43:35;;;;;;;13.85;7.03;;;;;;;14.06;100.00;100384.72;5033245;28;20025;-63
2022/10/30 02:46:00;;;;;;;20.48;7.70;;;;;;;14.04;100.00;100385.69;5033247;28;20079;-64
2022/10/30 02:48:26;;;;;;;17.10;7.78;;;;;;;14.00;100.00;100386.78;5023931;28;20034;-64
2022/10/30 02:50:51;;;;;;;12.88;7.43;;;;;;;13.99;100.00;100390.34;5013834;28;20038;-63
2022/10/30 02:53:17;;;;;;;14.63;7.40;;;;;;;13.94;100.00;100395.03;5013438;28;20029;-64
2022/10/30 02:55:42;;;;;;;9.73;6.13;;;;;;;13.87;100.00;100382.84;5013432;28;20029;-63
2022/10/30 02:58:07;;;;;;;14.73;7.72;;;;;;;13.89;100.00;100391.66;5012773;28;20417;-64
2022/10/30 03:00:33;;;;;;;18.92;6.97;;;;;;;13.88;100.00;100395.28;5013344;28;20025;-64
2022/10/30 03:02:58;;;;;;;12.40;6.68;;;;;;;13.88;100.00;100392.59;5026285;28;20656;-64
2022/10/30 03:05:24;;;;;;;15.65;7.18;;;;;;;13.85;100.00;100390.94;5013079;28;20033;-64
2022/10/30 03:07:50;;;;;;;11.95;6.50;;;;;;;13.79;100.00;100384.97;5013222;28;20037;-64
2022/10/30 03:10:16;;;;;;;12.32;6.18;;;;;;;13.75;100.00;100394.91;5013204;28;20025;-64
2022/10/30 03:12:42;;;;;;;13.40;6.35;;;;;;;13.73;100.00;100391.41;5013196;28;20022;-64
2022/10/30 03:15:08;;;;;;;12.30;6.10;;;;;;;13.71;100.00;100392.38;5012769;28;20030;-63
2022/10/30 03:17:33;;;;;;;9.30;5.53;;;;;;;13.66;100.00;100394.38;5012988;28;20032;-63
2022/10/30 03:19:59;;;;;;;9.55;5.97;;;;;;;13.62;100.00;100393.66;5015739;28;20029;-63
2022/10/30 03:22:24;;;;;;;9.18;5.55;;;;;;;13.59;100.00;100392.88;5032578;28;20028;-63
2022/10/30 03:24:50;;;;;;;7.80;5.75;;;;;;;13.57;100.00;100395.63;5032525;28;20025;-63
2022/10/30 03:27:15;;;;;;;12.07;6.28;;;;;;;13.54;100.00;100392.19;5031806;28;20043;-63
2022/10/30 03:29:40;;;;;;;8.68;5.50;;;;;;;13.56;100.00;100391.19;5031451;28;20036;-63
2022/10/30 03:32:10;;;;;;;8.05;5.40;;;;;;;13.54;100.00;100394.88;5031350;28;20025;-62
2022/10/30 03:34:36;;;;;;;9.48;5.88;;;;;;;13.52;100.00;100397.59;5031436;28;20032;-63
2022/10/30 03:37:02;;;;;;;10.02;5.88;;;;;;;13.51;100.00;100395.00;5031403;28;20034;-63
2022/10/30 03:39:27;;;;;;;10.00;6.18;;;;;;;13.48;100.00;100395.97;5031530;28;20051;-62
2022/10/30 03:41:53;;;;;;;8.40;5.63;;;;;;;13.44;100.00;100398.81;5031624;28;20104;-62
2022/10/30 03:44:18;;;;;;;13.20;6.32;;;;;;;13.44;100.00;100402.38;5032044;28;20510;-62
2022/10/30 03:46:43;;;;;;;9.45;6.15;;;;;;;13.45;100.00;100401.44;5023906;28;20553;-63
2022/10/30 03:49:09;;;;;;;7.72;5.55;;;;;;;13.44;100.00;100398.81;5012502;28;20108;-62
2022/10/30 03:51:34;;;;;;;8.13;5.82;;;;;;;13.41;100.00;100397.13;5026237;28;20029;-62
2022/10/30 03:54:00;;;;;;;10.85;6.70;;;;;;;13.38;100.00;100399.91;5031949;28;20025;-63
2022/10/30 03:56:25;;;;;;;9.30;5.55;;;;;;;13.37;100.00;100394.63;5032095;28;20040;-62
2022/10/30 03:58:51;;;;;;;10.05;5.90;;;;;;;13.36;100.00;100395.56;5031655;28;20135;-62
2022/10/30 04:01:16;;;;;;;7.78;5.45;;;;;;;13.34;100.00;100402.75;5025802;28;20473;-63
2022/10/30 04:03:41;;;;;;;7.68;5.80;;;;;;;13.32;100.00;100400.16;5020027;28;20036;-63
2022/10/30 04:06:07;;;;;;;11.88;5.88;;;;;;;13.30;100.00;100401.13;5032147;28;20023;-62
2022/10/30 04:08:34;;;;;;;10.10;6.93;;;;;;;13.26;100.00;100394.16;5031828;28;20076;-63
2022/10/30 04:10:59;;;;;;;8.40;5.18;;;;;;;13.20;100.00;100396.13;5030964;28;20466;-63
2022/10/30 04:13:25;;;;;;;8.50;5.13;;;;;;;13.12;100.00;100392.88;5031301;28;20093;-63
2022/10/30 04:15:50;;;;;;;9.43;6.13;;;;;;;13.12;100.00;100392.88;5031499;28;20083;-63
2022/10/30 04:18:16;;;;;;;12.88;5.90;;;;;;;13.12;100.00;100386.66;5030943;28;20073;-63
2022/10/30 04:20:43;;;;;;;10.02;5.80;;;;;;;13.13;100.00;100391.94;5030754;28;20029;-63
2022/10/30 04:23:13;;;;;;;8.20;5.40;;;;;;;13.11;100.00;100396.47;5030868;28;20141;-63
2022/10/30 04:25:38;;;;;;;8.30;5.60;;;;;;;13.08;100.00;100404.59;5030775;28;20079;-63
2022/10/30 04:28:04;;;;;;;10.60;5.90;;;;;;;13.06;100.00;100393.09;5030866;28;20021;-63
2022/10/30 04:30:34;;;;;;;11.38;5.95;;;;;;;13.07;100.00;100391.31;5030004;28;20031;-63
2022/10/30 04:33:00;;;;;;;9.75;5.47;;;;;;;13.04;100.00;100389.63;5031581;28;20033;-63
2022/10/30 04:35:29;;;;;;;9.90;5.40;;;;;;;12.99;100.00;100382.66;5031347;28;20036;-63
2022/10/30 04:37:59;;;;;;;10.93;6.00;;;;;;;12.95;100.00;100387.25;5031395;28;20029;-63
2022/10/30 04:40:27;;;;;;;7.65;5.93;;;;;;;12.93;100.00;100385.56;5031182;28;20104;-63
2022/10/30 04:42:53;;;;;;;11.73;6.00;;;;;;;12.95;100.00;100379.22;5030841;28;20092;-63
2022/10/30 04:45:18;;;;;;;13.30;6.55;;;;;;;12.94;100.00;100390.84;5016433;28;20049;-63
2022/10/30 04:47:44;;;;;;;12.10;6.55;;;;;;;12.92;100.00;100384.69;5011636;28;20034;-63
2022/10/30 04:50:10;;;;;;;12.82;6.50;;;;;;;12.86;100.00;100374.25;5011245;28;20038;-63
2022/10/30 04:52:35;;;;;;;17.83;7.85;;;;;;;12.90;100.00;100391.88;5011728;28;20105;-62
2022/10/30 04:55:02;;;;;;;12.38;6.75;;;;;;;12.87;100.00;100392.00;5029824;28;20037;-63
2022/10/30 04:57:27;;;;;;;10.77;6.10;;;;;;;12.92;100.00;100387.38;5031273;28;20087;-63
2022/10/30 04:59:52;;;;;;;13.77;6.30;;;;;;;12.94;100.00;100389.97;5030807;28;20041;-62
2022/10/30 05:02:18;;;;;;;11.10;6.82;;;;;;;12.92;100.00;100395.38;5031098;28;20029;-63
2022/10/30 05:04:44;;;;;;;10.32;5.97;;;;;;;12.91;100.00;100385.63;5014160;28;20564;-63
2022/10/30 05:07:10;;;;;;;25.65;6.95;;;;;;;12.95;100.00;100375.69;5011314;28;20033;-63
2022/10/30 05:09:35;;;;;;;10.32;5.68;;;;;;;12.94;100.00;100382.84;5011030;28;20386;-63
2022/10/30 05:12:01;;;;;;;9.48;6.05;;;;;;;12.91;100.00;100377.63;5011026;28;20021;-63
2022/10/30 05:14:31;;;;;;;11.35;6.07;;;;;;;12.88;100.00;100372.38;5011417;28;20529;-63
2022/10/30 05:16:57;;;;;;;11.32;6.45;;;;;;;12.86;100.00;100374.25;5011285;28;20022;-62
2022/10/30 05:19:22;;;;;;;12.50;5.78;;;;;;;12.87;100.00;100367.97;5010892;28;20117;-63
2022/10/30 05:21:48;;;;;;;9.07;5.60;;;;;;;12.89;100.00;100373.25;5031324;28;20025;-62
2022/10/30 05:24:13;;;;;;;8.98;4.93;;;;;;;12.87;100.00;100375.97;5034802;28;20026;-63
2022/10/30 05:26:38;;;;;;;15.38;5.93;;;;;;;12.82;100.00;100367.25;5034677;28;20030;-63
2022/10/30 05:29:04;;;;;;;9.55;5.25;;;;;;;12.85;100.00;100367.13;5034469;28;20029;-63
2022/10/30 05:31:29;;;;;;;11.57;5.65;;;;;;;12.81;100.00;100368.19;5033795;28;20103;-62
2022/10/30 05:33:55;;;;;;;9.60;4.85;;;;;;;12.79;100.00;100377.16;5033802;28;20024;-63
2022/10/30 05:36:20;;;;;;;8.32;4.85;;;;;;;12.74;100.00;100372.00;5033525;28;20480;-63
2022/10/30 05:38:46;;;;;;;10.65;5.20;;;;;;;12.70;100.00;100366.84;5025400;28;20148;-63
2022/10/30 05:41:11;;;;;;;7.25;4.78;;;;;;;12.66;100.00;100382.09;5013835;28;20512;-63
2022/10/30 05:43:37;;;;;;;7.00;4.90;;;;;;;12.61;100.00;100384.03;5016252;28;20030;-63
2022/10/30 05:46:02;;;;;;;10.82;4.57;;;;;;;12.57;100.00;100382.38;5014397;28;20024;-63
2022/10/30 05:48:28;;;;;;;10.60;5.97;;;;;;;12.52;100.00;100381.69;5014751;28;20033;-63
2022/10/30 05:50:56;;;;;;;10.40;5.07;;;;;;;12.49;100.00;100378.25;5014643;28;20022;-64
2022/10/30 05:53:22;;;;;;;9.48;5.63;;;;;;;12.47;100.00;100377.44;5014729;28;20076;-62
2022/10/30 05:55:48;;;;;;;10.23;5.13;;;;;;;12.46;100.00;100376.56;5014231;28;20705;-64
2022/10/30 05:58:13;;;;;;;7.63;4.80;;;;;;;12.47;100.00;100380.97;5014272;28;20104;-63
2022/10/30 06:00:40;;;;;;;8.63;5.43;;;;;;;12.47;100.00;100378.28;5014429;28;20061;-64
2022/10/30 06:03:09;;;;;;;9.68;4.97;;;;;;;12.43;100.00;100378.47;5017791;28;20029;-64
2022/10/30 06:05:36;;;;;;;7.82;5.43;;;;;;;12.43;100.00;100383.78;5024692;28;20014;-64
2022/10/30 06:08:04;;;;;;;10.05;6.13;;;;;;;12.38;100.00;100383.97;5014400;28;20037;-64
2022/10/30 06:10:29;;;;;;;7.20;4.90;;;;;;;12.34;100.00;100390.31;5014171;28;20053;-65
2022/10/30 06:13:03;;;;;;;9.90;4.80;;;;;;;12.32;100.00;100391.31;4994289;28;20424;-64
2022/10/30 06:15:30;;;;;;;7.82;5.00;;;;;;;12.33;100.00;100393.91;5013699;28;20033;-64
2022/10/30 06:17:55;;;;;;;8.50;6.28;;;;;;;12.31;100.00;100393.09;5032987;28;20051;-64
2022/10/30 06:20:24;;;;;;;10.38;4.53;;;;;;;12.32;100.00;100404.63;5032988;28;20461;-64
2022/10/30 06:23:01;;;;;;;10.40;4.30;;;;;;;12.30;100.00;100404.69;5032453;28;20433;-64
2022/10/30 06:25:28;;;;;;;11.40;4.68;;;;;;;12.28;100.00;100398.53;5018893;28;20068;-64
2022/10/30 06:27:53;;;;;;;7.82;4.50;;;;;;;12.30;100.00;100404.69;5033874;28;20021;-64
2022/10/30 06:30:20;;;;;;;8.77;5.07;;;;;;;12.36;100.00;100401.81;5046376;28;20658;-63
2022/10/30 06:32:45;;;;;;;15.80;5.30;;;;;;;12.42;100.00;100398.91;5032756;28;20021;-64
2022/10/30 06:35:11;;;;;;;9.18;4.78;;;;;;;12.50;100.00;100407.56;5033169;28;20048;-63
2022/10/30 06:37:40;;;;;;;11.20;5.03;;;;;;;12.59;100.00;100407.22;5033338;28;20107;-63
2022/10/30 06:40:07;;;;;;;8.95;5.18;;;;;;;12.66;100.00;100407.88;5033701;28;20026;-64
2022/10/30 06:42:32;;;;;;;7.60;4.78;;;;;;;12.69;100.00;100408.66;5033219;28;20029;-64
2022/10/30 06:44:57;;;;;;;11.55;6.18;;;;;;;12.74;100.00;100401.38;5032532;28;20087;-63
2022/10/30 06:47:23;;;;;;;9.27;5.28;;;;;;;12.82;100.00;100393.94;5030360;28;20446;-64
2022/10/30 06:49:48;;;;;;;7.40;4.22;;;;;;;12.91;100.00;100403.44;5041461;28;20029;-63
2022/10/30 06:52:14;;;;;;;6.78;4.80;;;;;;;12.99;100.00;100407.59;5011486;28;20032;-63
2022/10/30 06:54:39;;;;;;;13.50;6.15;;;;;;;13.07;100.00;100405.53;5024861;28;20017;-63
2022/10/30 06:57:04;;;;;;;12.68;5.70;;;;;;;13.19;100.00;100404.22;5032244;28;20029;-63
2022/10/30 06:59:30;;;;;;;9.95;5.28;;;;;;;13.32;100.00;100410.84;5023550;28;20790;-63
2022/10/30 07:01:55;;;;;;;11.13;7.45;;;;;;;13.48;100.00;100400.44;5022843;28;20029;-63
2022/10/30 07:04:21;;;;;;;7.47;4.85;;;;;;;13.75;100.00;100402.03;5025990;28;20032;-63
2022/10/30 07:06:46;;;;;;;6.68;4.32;;;;;;;14.39;100.00;100409.25;5032557;28;20501;-63
2022/10/30 07:09:12;;;;;;;9.35;4.82;;;;;;;15.08;100.00;100406.19;5029418;28;20017;-63
2022/10/30 07:11:41;;;;;;;7.97;4.72;;;;;;;15.32;100.00;100398.88;5027200;28;20034;-63
2022/10/30 07:14:06;;;;;;;6.65;4.65;;;;;;;15.51;100.00;100405.13;5026721;28;20457;-63
2022/10/30 07:16:31;;;;;;;7.75;4.25;;;;;;;15.74;100.00;100408.50;5030025;28;20116;-63
2022/10/30 07:18:57;;;;;;;7.22;4.20;;;;;;;16.20;100.00;100407.13;5027242;28;20029;-63
2022/10/30 07:21:24;;;;;;;13.93;5.15;;;;;;;17.07;100.00;100407.13;5027138;28;20031;-63
2022/10/30 07:23:50;;;;;;;9.60;4.68;;;;;;;17.90;98.09;100416.91;5030010;28;20041;-63
2022/10/30 07:26:15;;;;;;;8.23;4.75;;;;;;;18.80;92.32;100412.53;5025958;28;20025;-63
2022/10/30 07:28:40;;;;;;;6.60;3.65;;;;;;;19.41;86.00;100415.97;5028891;28;20591;-63
2022/10/30 07:31:06;;;;;;;8.07;3.97;;;;;;;19.75;80.79;100412.91;5028820;28;20199;-64
2022/10/30 07:33:31;;;;;;;7.47;3.60;;;;;;;20.14;77.54;100412.13;5027996;28;20022;-63
2022/10/30 07:36:00;;;;;;;6.35;3.25;;;;;;;20.74;73.90;100422.47;5026918;28;20453;-63
2022/10/30 07:38:25;;;;;;;6.63;3.47;;;;;;;21.28;67.91;100416.97;5028373;28;20022;-63
2022/10/30 07:40:52;;;;;;;6.25;3.40;;;;;;;21.69;66.99;100418.50;5025343;28;20060;-63
2022/10/30 07:43:18;;;;;;;5.93;3.45;;;;;;;22.12;64.77;100418.97;5027120;28;20029;-63
2022/10/30 07:45:46;;;;;;;6.55;3.75;;;;;;;22.71;63.74;100418.09;5028898;28;20052;-63
2022/10/30 07:48:11;;;;;;;10.32;4.60;;;;;;;23.66;60.29;100417.91;5029016;28;20078;-63
2022/10/30 07:50:37;;;;;;;8.82;3.63;;;;;;;24.59;56.34;100421.88;5025985;28;20492;-63
2022/10/30 07:53:02;;;;;;;7.03;3.38;;;;;;;25.13;53.39;100427.22;5024432;28;20025;-63
2022/10/30 07:55:28;;;;;;;8.73;3.88;;;;;;;25.23;53.31;100436.34;5025742;28;20032;-63
2022/10/30 07:57:53;;;;;;;6.85;3.78;;;;;;;25.77;51.20;100428.81;5028458;28;20409;-63
2022/10/30 08:00:19;;;;;;;8.88;4.70;;;;;;;26.25;49.36;100423.56;5028406;28;20031;-63
2022/10/30 08:02:48;;;;;;;8.40;4.03;;;;;;;26.87;48.33;100428.75;5024926;28;20034;-63
2022/10/30 08:05:13;;;;;;;6.40;4.03;;;;;;;27.04;47.91;100425.28;5029686;28;20021;-62
2022/10/30 08:07:39;;;;;;;6.88;3.30;;;;;;;27.30;46.96;100425.59;5026708;28;20538;-63
2022/10/30 08:10:06;;;;;;;5.85;3.08;;;;;;;27.62;46.54;100432.41;5025071;28;20034;-63
2022/10/30 08:12:33;;;;;;;6.43;3.47;;;;;;;27.90;46.41;100434.25;5028170;28;20029;-63
2022/10/30 08:14:58;;;;;;;8.70;3.67;;;;;;;28.54;44.58;100436.09;5025029;28;20021;-63
2022/10/30 08:17:23;;;;;;;8.00;3.85;;;;;;;29.37;43.16;100439.34;5025447;28;20689;-63
2022/10/30 08:19:49;;;;;;;7.25;3.33;;;;;;;30.19;41.67;100440.56;5026426;28;20087;-63
2022/10/30 08:22:15;;;;;;;9.02;4.90;;;;;;;30.49;40.27;100442.81;5024873;28;20133;-63
2022/10/30 08:24:40;;;;;;;9.10;3.65;;;;;;;31.09;39.55;100445.38;5026200;28;20079;-63
2022/10/30 08:27:06;;;;;;;10.38;4.15;;;;;;;31.44;38.86;100436.78;5025747;28;20095;-63
2022/10/30 08:29:33;;;;;;;8.23;4.30;;;;;;;31.54;38.49;100434.72;5024146;28;20556;-63
2022/10/30 08:31:59;;;;;;;9.73;4.50;;;;;;;31.66;38.73;100436.09;5026687;28;20036;-63
2022/10/30 08:34:26;;;;;;;9.13;4.18;;;;;;;31.31;38.27;100433.66;5025799;28;20032;-63
2022/10/30 08:36:52;;;;;;;8.55;3.95;;;;;;;31.16;38.76;100425.25;5025294;28;20025;-63
2022/10/30 08:39:18;;;;;;;11.82;3.88;;;;;;;31.16;38.98;100422.50;5026965;28;20037;-63
2022/10/30 08:41:44;;;;;;;6.65;3.47;;;;;;;31.31;38.67;100422.66;5024250;28;20906;-63
2022/10/30 08:44:09;;;;;;;8.88;3.47;;;;;;;31.03;38.69;100419.41;5022989;28;20183;-63
2022/10/30 08:46:35;;;;;;;10.65;4.10;;;;;;;30.98;39.08;100427.31;5025124;28;20108;-63
2022/10/30 08:49:00;;;;;;;10.65;4.22;;;;;;;30.63;39.50;100422.91;5024114;28;20495;-63
2022/10/30 08:51:26;;;;;;;11.48;4.95;;;;;;;29.86;40.50;100422.22;5024107;28;20033;-63
2022/10/30 08:53:51;;;;;;;8.68;3.28;;;;;;;29.07;42.27;100420.53;5026054;28;20128;-63
2022/10/30 08:56:17;;;;;;;10.18;3.55;;;;;;;28.80;43.77;100418.75;5022763;28;20402;-63
2022/10/30 08:58:43;;;;;;;9.80;3.45;;;;;;;28.92;42.97;100417.50;5024918;28;20056;-62
2022/10/30 09:01:09;;;;;;;10.27;3.88;;;;;;;28.58;43.41;100418.34;5025439;28;20037;-63
2022/10/30 09:03:34;;;;;;;9.23;3.72;;;;;;;28.40;44.44;100418.28;5023399;28;20036;-63
2022/10/30 09:06:00;;;;;;;12.68;3.83;;;;;;;28.71;44.66;100416.09;5025774;28;20031;-63
2022/10/30 09:08:26;;;;;;;8.13;3.15;;;;;;;28.89;44.45;100423.31;5024304;28;20560;-63
2022/10/30 09:10:58;;;;;;;7.13;3.20;;;;;;;28.39;44.37;100427.50;5025276;28;20033;-63
2022/10/30 09:13:24;;;;;;;8.63;3.60;;;;;;;27.90;44.97;100426.03;5025355;28;20028;-63
2022/10/30 09:15:50;;;;;;;8.32;3.35;;;;;;;27.39;46.10;100414.63;5025780;28;20484;-63
2022/10/30 09:18:16;;;;;;;11.00;3.65;;;;;;;27.03;47.54;100418.09;5023499;28;20040;-63
2022/10/30 09:20:41;;;;;;;10.02;3.58;;;;;;;27.33;47.16;100420.66;5024726;28;20021;-63
2022/10/30 09:23:07;;;;;;;8.50;4.10;;;;;;;27.61;47.26;100413.44;5023623;28;20064;-63
2022/10/30 09:25:32;;;;;;;9.30;4.18;;;;;;;27.80;46.47;100422.44;5025046;28;20026;-63
2022/10/30 09:27:58;;;;;;;11.63;4.10;;;;;;;27.80;46.78;100416.09;5022709;28;20061;-63
2022/10/30 09:30:23;;;;;;;8.13;3.75;;;;;;;28.12;47.69;100417.41;5024373;28;20042;-63
2022/10/30 09:33:00;;;;;;;10.23;4.40;;;;;;;28.50;45.89;100410.06;5026296;28;20021;-64
2022/10/30 09:35:27;;;;;;;11.57;3.88;;;;;;;28.50;45.82;100416.38;5023941;28;20232;-63
2022/10/30 09:37:53;;;;;;;9.85;4.35;;;;;;;28.41;46.44;100415.41;5024869;28;20621;-63
2022/10/30 09:40:28;;;;;;;8.07;3.58;;;;;;;28.53;46.09;100415.22;5025320;28;20029;-63
2022/10/30 09:43:03;;;;;;;8.38;3.38;;;;;;;28.30;46.22;100410.13;5023373;28;20029;-64
2022/10/30 09:46:00;;;;;;;11.80;4.45;;;;;;;28.17;46.63;100415.09;5024840;28;20030;-63
2022/10/30 09:48:37;;;;;;;8.55;3.25;;;;;;;28.20;47.08;100417.50;5000574;28;20045;-64
2022/10/30 09:51:20;;;;;;;8.02;3.72;;;;;;;28.28;46.44;100420.38;5024057;28;20025;-63
2022/10/30 09:54:20;;;;;;;10.05;4.03;;;;;;;28.44;46.40;100415.09;5025890;28;20021;-63
2022/10/30 09:56:53;;;;;;;8.10;3.53;;;;;;;28.40;46.17;100415.56;5024727;28;20539;-63
2022/10/30 09:59:21;;;;;;;11.93;4.07;;;;;;;28.63;46.40;100421.47;5024809;28;20256;-64
2022/10/30 10:01:53;;;;;;;8.60;3.42;;;;;;;29.02;46.06;100414.69;5024035;28;20072;-63
2022/10/30 10:04:29;;;;;;;7.70;3.50;;;;;;;29.50;45.49;100415.09;5025445;28;20068;-63
2022/10/30 10:07:06;;;;;;;9.73;2.90;;;;;;;30.02;44.47;100430.53;5024854;28;20432;-63
2022/10/30 10:09:34;;;;;;;10.07;3.05;;;;;;;30.21;42.25;100421.19;5025894;28;20536;-63
2022/10/30 10:12:17;;;;;;;7.75;3.20;;;;;;;29.92;42.39;100424.31;5028245;28;20032;-63
2022/10/30 10:14:46;;;;;;;6.45;3.40;;;;;;;29.74;42.89;100429.00;5026332;28;20013;-63
2022/10/30 10:17:18;;;;;;;8.90;3.22;;;;;;;29.53;43.77;100425.75;5028002;28;20044;-63
2022/10/30 10:19:48;;;;;;;9.93;2.73;;;;;;;29.63;43.03;100421.03;5029193;28;20104;-62
2022/10/30 10:22:29;;;;;;;7.28;2.90;;;;;;;29.72;43.57;100419.22;5009311;28;21035;-61
2022/10/30 10:24:55;;;;;;;15.13;3.80;;;;;;;29.75;44.29;100419.78;5028966;28;20487;-62
2022/10/30 10:27:52;;;;;;;8.98;2.83;;;;;;;29.56;45.59;100419.94;5027396;28;20038;-61
2022/10/30 10:30:28;;;;;;;8.80;3.05;;;;;;;29.25;44.75;100422.28;5027959;28;20033;-63
2022/10/30 10:33:18;;;;;;;8.90;2.88;;;;;;;29.12;44.97;100419.09;5029426;28;20362;-65
2022/10/30 10:35:58;;;;;;;8.82;2.90;;;;;;;28.54;47.21;100411.44;5026031;28;20696;-64
2022/10/30 10:38:36;;;;;;;6.68;2.97;;;;;;;28.55;45.62;100416.75;5029568;28;20053;-62
2022/10/30 10:41:10;;;;;;;7.18;2.88;;;;;;;28.14;46.61;100406.31;5026938;28;20475;-63
2022/10/30 10:43:51;;;;;;;9.90;2.85;;;;;;;28.09;47.07;100414.13;5028101;28;20047;-61
2022/10/30 10:46:23;;;;;;;7.78;3.80;;;;;;;28.14;48.95;100404.47;5029087;28;20056;-61
2022/10/30 10:49:16;;;;;;;8.95;3.30;;;;;;;28.27;48.49;100404.13;5026232;28;20036;-62
2022/10/30 10:51:49;;;;;;;6.32;2.83;;;;;;;28.27;47.31;100402.22;5029479;28;20644;-63
2022/10/30 10:54:27;;;;;;;6.70;2.60;;;;;;;28.30;46.64;100396.44;5025698;28;20029;-63
2022/10/30 10:56:54;;;;;;;9.77;2.90;;;;;;;28.57;45.90;100405.69;5027078;28;20034;-62
2022/10/30 10:59:41;;;;;;;6.95;2.55;;;;;;;28.69;45.37;100401.69;5029760;28;20069;-63
2022/10/30 11:02:26;;;;;;;8.93;2.92;;;;;;;28.73;46.74;100389.41;5025561;28;20661;-63
2022/10/30 11:04:54;;;;;;;11.07;3.08;;;;;;;28.74;46.63;100407.56;5029988;28;20028;-63
2022/10/30 11:07:22;;;;;;;6.22;2.65;;;;;;;28.57;47.77;100392.00;5026214;28;20029;-64
2022/10/30 11:09:56;;;;;;;5.35;2.47;;;;;;;28.45;45.67;100394.06;5028358;28;20586;-62
2022/10/30 11:12:29;;;;;;;6.65;2.40;;;;;;;28.35;46.97;100394.09;5027240;28;20017;-62
2022/10/30 11:14:57;;;;;;;8.15;2.50;;;;;;;28.65;46.77;100387.44;5027417;28;20436;-63
2022/10/30 11:17:30;;;;;;;7.88;3.22;;;;;;;28.63;45.53;100392.25;5030356;28;20495;-63
2022/10/30 11:20:13;;;;;;;5.33;2.57;;;;;;;28.48;45.59;100383.63;5027475;28;20056;-63
2022/10/30 11:22:44;;;;;;;8.05;2.78;;;;;;;28.34;46.22;100377.84;5027940;28;20418;-62